createdAt,value
2023-11-30T00:02:18.860Z,78.31
2023-11-30T00:05:23.635Z,77.89
2023-11-30T00:08:25.656Z,78.01
2023-11-30T00:11:27.569Z,77.79
2023-11-30T00:14:29.302Z,78.53
2023-11-30T00:17:31.133Z,77.36
2023-11-30T00:20:35.184Z,77.14
2023-11-30T00:23:37.205Z,76.88
2023-11-30T00:26:39.046Z,77.69
2023-11-30T00:29:40.905Z,77.84
2023-11-30T00:32:42.923Z,78.94
2023-11-30T00:35:46.458Z,78.69
2023-11-30T00:38:48.293Z,78.75
2023-11-30T00:41:50.615Z,79.27
2023-11-30T00:44:52.463Z,79.58
2023-11-30T00:48:00.950Z,80.08
2023-11-30T00:51:04.648Z,79.96
2023-11-30T00:54:06.740Z,79.19
2023-11-30T00:57:09.059Z,81.17
2023-11-30T01:00:11.592Z,81.49
2023-11-30T01:03:13.524Z,81.37
2023-11-30T01:06:17.201Z,82.06
2023-11-30T01:09:19.095Z,83.43
2023-11-30T01:12:21.344Z,82.86
2023-11-30T01:15:23.183Z,82.75
2023-11-30T01:18:25.494Z,83.34
2023-11-30T01:21:28.885Z,83.85
2023-11-30T01:24:30.723Z,84.39
2023-11-30T01:27:32.503Z,85.01
2023-11-30T01:30:34.375Z,84.54
2023-11-30T01:33:36.615Z,85.34
2023-11-30T01:36:40.880Z,84.95
2023-11-30T01:39:42.612Z,84.68
2023-11-30T01:42:44.494Z,85.38
2023-11-30T01:45:46.437Z,84.94
2023-11-30T01:48:48.816Z,84.71
2023-11-30T01:51:52.563Z,84.37
2023-11-30T01:54:55.225Z,83.64
2023-11-30T01:57:57.506Z,83.81
2023-11-30T02:00:59.678Z,83.93
2023-11-30T02:04:11.445Z,83.42
2023-11-30T02:07:14.743Z,84.08
2023-11-30T02:10:17.183Z,84.41
2023-11-30T02:13:18.963Z,81.86
2023-11-30T02:16:21.108Z,80.98
2023-11-30T02:19:22.974Z,81.27
2023-11-30T02:22:26.697Z,80.83
2023-11-30T02:25:28.464Z,80.68
2023-11-30T02:28:30.451Z,79.97
2023-11-30T02:31:32.519Z,79.55
2023-11-30T02:34:34.477Z,78.75
2023-11-30T02:37:37.809Z,78.43
2023-11-30T02:40:39.819Z,77.38
2023-11-30T02:43:41.609Z,77.92
2023-11-30T02:46:43.412Z,77.65
2023-11-30T02:49:45.384Z,77.24
2023-11-30T02:52:49.779Z,77.29
2023-11-30T02:55:51.579Z,75.29
2023-11-30T02:58:53.552Z,76.13
2023-11-30T03:01:55.544Z,75.65
2023-11-30T03:04:57.555Z,75.96
2023-11-30T03:08:01.004Z,75.83
2023-11-30T03:11:02.777Z,76.03
2023-11-30T03:14:04.890Z,75.40
2023-11-30T03:17:06.613Z,76.09
2023-11-30T03:20:09.496Z,74.28
2023-11-30T03:23:12.788Z,75.40
2023-11-30T03:26:17.018Z,75.18
2023-11-30T03:29:18.847Z,76.23
2023-11-30T03:32:20.588Z,75.99
2023-11-30T03:35:22.439Z,75.44
2023-11-30T03:38:25.767Z,75.56
2023-11-30T03:41:27.713Z,76.06
2023-11-30T03:44:29.605Z,74.80
2023-11-30T03:47:31.523Z,74.56
2023-11-30T03:50:33.594Z,76.23
2023-11-30T03:53:37.170Z,75.25
2023-11-30T03:56:39.254Z,75.47
2023-11-30T03:59:41.208Z,75.60
2023-11-30T04:02:45.219Z,76.88
2023-11-30T04:05:47.011Z,76.80
2023-11-30T04:08:50.900Z,76.66
2023-11-30T04:11:52.679Z,76.48
2023-11-30T04:14:54.560Z,76.66
2023-11-30T04:17:56.553Z,77.03
2023-11-30T04:20:58.412Z,76.61
2023-11-30T04:24:01.864Z,77.61
2023-11-30T04:27:04.284Z,76.78
2023-11-30T04:30:08.161Z,77.53
2023-11-30T04:33:10.358Z,77.98
2023-11-30T04:36:12.531Z,76.96
2023-11-30T04:39:15.857Z,76.75
2023-11-30T04:42:17.676Z,77.76
2023-11-30T04:45:20.056Z,77.07
2023-11-30T04:48:21.870Z,77.11
2023-11-30T04:51:24.175Z,77.77
2023-11-30T04:54:27.641Z,77.71
2023-11-30T04:57:29.531Z,78.53
2023-11-30T05:00:31.618Z,77.79
2023-11-30T05:03:34.004Z,79.13
2023-11-30T05:06:35.934Z,78.78
2023-11-30T05:09:39.141Z,79.18
2023-11-30T05:12:41.312Z,79.07
2023-11-30T05:15:45.084Z,79.12
2023-11-30T05:18:48.232Z,78.58
2023-11-30T05:21:50.234Z,78.29
2023-11-30T05:24:53.716Z,78.90
2023-11-30T05:27:55.509Z,79.40
2023-11-30T05:30:57.885Z,77.40
2023-11-30T05:33:59.760Z,77.04
2023-11-30T05:37:02.170Z,77.82
2023-11-30T05:40:07.298Z,78.32
2023-11-30T05:43:09.367Z,76.53
2023-11-30T05:46:11.441Z,76.48
2023-11-30T05:49:13.642Z,77.14
2023-11-30T05:52:15.560Z,76.87
2023-11-30T05:55:19.176Z,77.18
2023-11-30T05:58:21.267Z,77.01
2023-11-30T06:01:23.043Z,75.53
2023-11-30T06:04:25.043Z,76.24
2023-11-30T06:07:26.923Z,75.91
2023-11-30T06:10:30.291Z,75.57
2023-11-30T06:13:32.200Z,75.83
2023-11-30T06:16:35.579Z,75.10
2023-11-30T06:19:37.367Z,76.41
2023-11-30T06:22:39.754Z,75.45
2023-11-30T06:25:43.160Z,77.09
2023-11-30T06:28:45.027Z,76.18
2023-11-30T06:31:47.233Z,76.86
2023-11-30T06:34:49.133Z,75.88
2023-11-30T06:37:50.848Z,76.91
2023-11-30T06:40:54.564Z,76.08
2023-11-30T06:43:56.763Z,75.17
2023-11-30T06:47:05.320Z,76.46
2023-11-30T06:50:09.201Z,75.70
2023-11-30T06:53:11.512Z,75.84
2023-11-30T06:56:14.968Z,76.77
2023-11-30T06:59:17.639Z,75.91
2023-11-30T07:02:20.362Z,75.55
2023-11-30T07:05:22.326Z,75.93
2023-11-30T07:08:25.190Z,75.98
2023-11-30T07:11:28.639Z,75.56
2023-11-30T07:14:30.424Z,74.95
2023-11-30T07:17:52.078Z,75.43
2023-11-30T07:20:53.851Z,76.17
2023-11-30T07:23:56.257Z,76.47
2023-11-30T07:27:00.149Z,75.43
2023-11-30T07:30:02.814Z,76.15
2023-11-30T07:33:04.779Z,76.15
2023-11-30T07:36:07.396Z,76.70
2023-11-30T07:39:09.417Z,76.12
2023-11-30T07:42:16.735Z,76.65
2023-11-30T07:45:20.601Z,75.37
2023-11-30T07:48:22.637Z,75.34
2023-11-30T07:51:24.900Z,76.80
2023-11-30T07:54:26.821Z,76.66
2023-11-30T07:57:30.170Z,75.88
2023-11-30T08:00:32.732Z,76.33
2023-11-30T08:03:34.880Z,76.10
2023-11-30T08:06:36.824Z,76.17
2023-11-30T08:09:39.057Z,76.97
2023-11-30T08:12:42.240Z,76.45
2023-11-30T08:15:44.037Z,75.70
2023-11-30T08:18:46.263Z,76.22
2023-11-30T08:21:48.238Z,75.35
2023-11-30T08:24:51.967Z,76.65
2023-11-30T08:27:55.628Z,75.94
2023-11-30T08:30:57.699Z,75.55
2023-11-30T08:33:59.712Z,75.38
2023-11-30T08:37:01.636Z,76.57
2023-11-30T08:40:03.791Z,75.56
2023-11-30T08:43:06.890Z,76.78
2023-11-30T08:46:08.998Z,75.67
2023-11-30T08:49:10.889Z,75.30
2023-11-30T08:52:13.013Z,76.25
2023-11-30T08:55:14.995Z,75.83
2023-11-30T08:58:18.730Z,75.78
2023-11-30T09:01:20.625Z,75.67
2023-11-30T09:04:22.746Z,75.75
2023-11-30T09:07:24.759Z,75.49
2023-11-30T09:10:26.942Z,76.52
2023-11-30T09:13:30.474Z,75.60
2023-11-30T09:16:32.209Z,76.13
2023-11-30T09:19:34.764Z,76.59
2023-11-30T09:22:36.920Z,76.51
2023-11-30T09:25:38.772Z,76.40
2023-11-30T09:28:41.997Z,74.71
2023-11-30T09:31:44.412Z,75.19
2023-11-30T09:34:46.621Z,75.55
2023-11-30T09:37:48.655Z,74.54
2023-11-30T09:40:52.672Z,75.09
2023-11-30T09:43:57.710Z,74.78
2023-11-30T09:46:59.762Z,74.25
2023-11-30T09:50:01.595Z,75.05
2023-11-30T09:53:03.785Z,74.76
2023-11-30T09:56:06.820Z,74.64
2023-11-30T09:59:10.026Z,74.41
2023-11-30T10:02:11.942Z,73.66
2023-11-30T10:05:13.916Z,73.07
2023-11-30T10:08:15.969Z,74.18
2023-11-30T10:11:17.915Z,72.31
2023-11-30T10:14:21.669Z,72.66
2023-11-30T10:17:23.791Z,72.51
2023-11-30T10:20:25.772Z,72.80
2023-11-30T10:23:27.597Z,71.60
2023-11-30T10:26:33.890Z,71.49
2023-11-30T10:29:43.235Z,71.51
2023-11-30T10:32:45.637Z,71.35
2023-11-30T10:35:50.641Z,71.51
2023-11-30T10:38:53.902Z,72.23
2023-11-30T10:41:56.498Z,70.95
2023-11-30T10:45:03.112Z,71.61
2023-11-30T10:48:06.610Z,70.49
2023-11-30T10:51:11.703Z,70.53
2023-11-30T10:54:26.131Z,69.83
2023-11-30T10:57:28.184Z,70.93
2023-11-30T11:00:35.396Z,69.78
2023-11-30T11:03:37.579Z,69.92
2023-11-30T11:06:39.470Z,70.32
2023-11-30T11:09:43.450Z,69.25
2023-11-30T11:12:50.192Z,69.14
2023-11-30T11:16:00.900Z,69.38
2023-11-30T11:19:05.081Z,69.17
2023-11-30T11:22:15.747Z,69.06
2023-11-30T11:25:17.747Z,68.83
2023-11-30T11:28:21.288Z,69.33
2023-11-30T11:31:24.999Z,68.43
2023-11-30T11:34:27.065Z,67.85
2023-11-30T11:37:28.996Z,68.37
2023-11-30T11:40:30.941Z,67.71
2023-11-30T11:43:32.770Z,68.39
2023-11-30T11:46:36.291Z,68.00
2023-11-30T11:49:39.283Z,68.33
2023-11-30T11:52:41.249Z,68.36
2023-11-30T11:55:43.251Z,67.87
2023-11-30T11:58:45.793Z,67.04
2023-11-30T12:01:49.036Z,67.48
2023-11-30T12:04:51.175Z,67.83
2023-11-30T12:07:55.965Z,68.18
2023-11-30T12:10:58.636Z,67.97
2023-11-30T12:14:00.557Z,67.23
2023-11-30T12:17:03.771Z,68.49
2023-11-30T12:20:06.984Z,67.71
2023-11-30T12:23:08.947Z,67.38
2023-11-30T12:26:10.954Z,67.96
2023-11-30T12:29:12.880Z,67.99
2023-11-30T12:32:16.048Z,68.07
2023-11-30T12:35:17.881Z,67.32
2023-11-30T12:38:19.914Z,67.27
2023-11-30T12:41:21.866Z,67.74
2023-11-30T12:44:23.766Z,67.83
2023-11-30T12:47:33.354Z,67.84
2023-11-30T12:50:35.278Z,66.66
2023-11-30T12:53:37.193Z,66.89
2023-11-30T12:56:38.989Z,66.97
2023-11-30T12:59:40.851Z,67.35
2023-11-30T13:02:44.717Z,67.84
2023-11-30T13:05:47.161Z,66.96
2023-11-30T13:08:49.048Z,68.15
2023-11-30T13:11:50.993Z,67.14
2023-11-30T13:14:53.148Z,68.05
2023-11-30T13:17:56.475Z,67.88
2023-11-30T13:20:58.411Z,66.56
2023-11-30T13:24:00.414Z,67.02
2023-11-30T13:27:02.390Z,67.53
2023-11-30T13:30:05.294Z,68.09
2023-11-30T13:33:09.884Z,67.16
2023-11-30T13:36:12.496Z,67.50
2023-11-30T13:39:14.267Z,67.86
2023-11-30T13:42:16.365Z,67.59
2023-11-30T13:45:18.525Z,67.94
2023-11-30T13:48:21.767Z,67.88
2023-11-30T13:51:23.745Z,68.23
2023-11-30T13:54:25.654Z,67.99
2023-11-30T13:57:27.705Z,67.67
2023-11-30T14:00:29.840Z,68.71
2023-11-30T14:03:33.416Z,69.00
2023-11-30T14:06:36.443Z,68.38
2023-11-30T14:09:38.699Z,68.63
2023-11-30T14:12:41.287Z,69.44
2023-11-30T14:15:43.051Z,68.24
2023-11-30T14:18:46.746Z,69.46
2023-11-30T14:21:48.722Z,69.12
2023-11-30T14:24:52.882Z,68.84
2023-11-30T14:27:54.979Z,69.80
2023-11-30T14:30:57.088Z,70.40
2023-11-30T14:34:00.395Z,70.54
2023-11-30T14:37:02.364Z,70.85
2023-11-30T14:40:06.252Z,70.00
2023-11-30T14:43:08.256Z,71.13
2023-11-30T14:46:10.268Z,70.40
2023-11-30T14:49:14.013Z,70.96
2023-11-30T14:52:17.359Z,71.66
2023-11-30T14:55:19.222Z,70.75
2023-11-30T14:58:21.001Z,71.02
2023-11-30T15:01:22.928Z,72.13
2023-11-30T15:04:26.429Z,72.16
2023-11-30T15:07:28.244Z,71.84
2023-11-30T15:10:30.047Z,72.36
2023-11-30T15:13:31.839Z,72.16
2023-11-30T15:16:34.169Z,72.02
2023-11-30T15:19:37.851Z,71.92
2023-11-30T15:22:40.063Z,71.59
2023-11-30T15:25:42.212Z,72.37
2023-11-30T15:28:44.173Z,73.28
2023-11-30T15:31:46.302Z,72.95
2023-11-30T15:34:49.892Z,72.26
2023-11-30T15:37:52.482Z,71.86
2023-11-30T15:40:54.352Z,72.12
2023-11-30T15:43:56.591Z,72.03
2023-11-30T15:46:58.531Z,73.16
2023-11-30T15:50:02.215Z,72.74
2023-11-30T15:53:04.126Z,72.49
2023-11-30T15:56:06.508Z,72.24
2023-11-30T15:59:08.498Z,72.83
2023-11-30T16:02:10.443Z,72.45
2023-11-30T16:05:14.640Z,73.01
2023-11-30T16:08:17.407Z,74.26
2023-11-30T16:11:19.324Z,72.91
2023-11-30T16:14:21.278Z,72.92
2023-11-30T16:17:23.108Z,73.46
2023-11-30T16:20:26.363Z,73.65
2023-11-30T16:23:28.220Z,73.74
2023-11-30T16:26:30.405Z,73.33
2023-11-30T16:29:32.326Z,74.09
2023-11-30T16:32:34.224Z,74.48
2023-11-30T16:35:37.460Z,74.49
2023-11-30T16:38:39.727Z,73.88
2023-11-30T16:41:41.707Z,74.85
2023-11-30T16:44:43.675Z,73.51
2023-11-30T16:47:45.571Z,73.33
2023-11-30T16:50:49.174Z,74.64
2023-11-30T16:53:51.083Z,74.33
2023-11-30T16:56:52.884Z,74.16
2023-11-30T16:59:54.670Z,74.04
2023-11-30T17:02:56.763Z,74.49
2023-11-30T17:05:59.965Z,73.41
2023-11-30T17:09:02.473Z,73.79
2023-11-30T17:12:06.456Z,74.63
2023-11-30T17:15:09.862Z,74.90
2023-11-30T17:18:12.176Z,74.22
2023-11-30T17:21:15.984Z,73.89
2023-11-30T17:24:17.755Z,75.48
2023-11-30T17:27:19.632Z,74.27
2023-11-30T17:30:21.540Z,74.13
2023-11-30T17:33:23.577Z,75.02
2023-11-30T17:36:26.972Z,74.83
2023-11-30T17:39:29.185Z,75.37
2023-11-30T17:42:31.173Z,75.44
2023-11-30T17:45:33.191Z,74.41
2023-11-30T17:48:35.206Z,74.68
2023-11-30T17:51:38.552Z,74.58
2023-11-30T17:54:40.494Z,74.71
2023-11-30T17:57:43.587Z,74.85
2023-11-30T18:00:45.402Z,74.36
2023-11-30T18:03:47.369Z,75.47
2023-11-30T18:06:50.888Z,74.36
2023-11-30T18:09:52.696Z,75.30
2023-11-30T18:12:54.738Z,74.15
2023-11-30T18:15:57.016Z,74.45
2023-11-30T18:18:58.869Z,75.12
2023-11-30T18:22:02.078Z,75.44
2023-11-30T18:25:04.117Z,75.70
2023-11-30T18:28:06.196Z,75.75
2023-11-30T18:31:16.541Z,75.30
2023-11-30T18:34:24.044Z,74.71
2023-11-30T18:37:27.144Z,75.44
2023-11-30T18:40:29.128Z,75.25
2023-11-30T18:43:31.783Z,75.79
2023-11-30T18:46:33.365Z,75.76
2023-11-30T18:49:35.579Z,75.78
2023-11-30T18:52:38.846Z,75.87
2023-11-30T18:55:40.624Z,75.67
2023-11-30T18:58:42.562Z,74.54
2023-11-30T19:01:44.421Z,75.26
2023-11-30T19:04:46.522Z,75.94
2023-11-30T19:07:49.757Z,76.13
2023-11-30T19:10:51.592Z,74.36
2023-11-30T19:13:53.365Z,74.34
2023-11-30T19:16:55.558Z,74.56
2023-11-30T19:19:57.393Z,74.56
2023-11-30T19:23:00.712Z,74.55
2023-11-30T19:26:02.471Z,74.13
2023-11-30T19:29:04.439Z,74.14
2023-11-30T19:32:06.846Z,74.99
2023-11-30T19:35:09.379Z,74.87
2023-11-30T19:38:12.687Z,74.94
2023-11-30T19:41:14.634Z,74.67
2023-11-30T19:44:16.926Z,73.73
2023-11-30T19:47:25.434Z,74.95
2023-11-30T19:50:27.611Z,73.48
2023-11-30T19:53:30.999Z,74.28
2023-11-30T19:56:33.042Z,73.23
2023-11-30T19:59:34.890Z,73.51
2023-11-30T20:02:36.940Z,73.39
2023-11-30T20:05:38.953Z,74.14
2023-11-30T20:08:42.182Z,73.15
2023-11-30T20:11:43.985Z,73.33
2023-11-30T20:14:45.846Z,73.14
2023-11-30T20:17:47.753Z,73.61
2023-11-30T20:20:49.562Z,73.89
2023-11-30T20:23:52.793Z,73.56
2023-11-30T20:26:54.758Z,73.79
2023-11-30T20:29:56.547Z,74.35
2023-11-30T20:32:58.457Z,73.48
2023-11-30T20:36:00.300Z,73.71
2023-11-30T20:39:03.523Z,74.72
2023-11-30T20:42:05.743Z,74.58
2023-11-30T20:45:09.220Z,74.50
2023-11-30T20:48:11.062Z,73.98
2023-11-30T20:51:18.105Z,74.63
2023-11-30T20:54:21.634Z,74.90
2023-11-30T20:57:23.431Z,73.91
2023-11-30T21:00:25.340Z,74.94
2023-11-30T21:03:27.293Z,73.38
2023-11-30T21:06:29.117Z,74.90
2023-11-30T21:09:32.537Z,75.23
2023-11-30T21:12:34.493Z,75.25
2023-11-30T21:15:36.415Z,74.59
2023-11-30T21:18:38.388Z,73.67
2023-11-30T21:21:40.308Z,74.48
2023-11-30T21:24:43.471Z,73.68
2023-11-30T21:27:45.261Z,74.26
2023-11-30T21:30:47.120Z,74.97
2023-11-30T21:33:49.245Z,75.59
2023-11-30T21:36:50.985Z,75.07
2023-11-30T21:39:54.371Z,74.46
2023-11-30T21:42:56.472Z,74.38
2023-11-30T21:45:58.369Z,74.12
2023-11-30T21:49:00.561Z,74.70
2023-11-30T21:52:02.888Z,74.64
2023-11-30T21:55:06.884Z,75.28
2023-11-30T21:58:09.032Z,74.50
2023-11-30T22:01:11.275Z,75.00
2023-11-30T22:04:13.316Z,75.58
2023-11-30T22:07:15.681Z,74.73
2023-11-30T22:10:19.360Z,76.03
2023-11-30T22:13:21.166Z,75.02
2023-11-30T22:16:28.919Z,76.13
2023-11-30T22:19:35.162Z,75.17
2023-11-30T22:22:37.133Z,76.13
2023-11-30T22:25:40.510Z,75.61
2023-11-30T22:28:42.239Z,75.31
2023-11-30T22:31:44.133Z,75.63
2023-11-30T22:34:46.169Z,75.46
2023-11-30T22:37:48.453Z,76.24
2023-11-30T22:40:51.646Z,76.05
2023-11-30T22:43:53.665Z,75.41
2023-11-30T22:46:55.786Z,75.50
2023-11-30T22:49:57.758Z,76.96
2023-11-30T22:52:59.758Z,76.53
2023-11-30T22:56:03.534Z,76.48
2023-11-30T22:59:06.174Z,75.81
2023-11-30T23:02:08.094Z,77.42
2023-11-30T23:05:10.041Z,76.89
2023-11-30T23:08:11.915Z,76.16
2023-11-30T23:11:15.624Z,76.57
2023-11-30T23:14:17.583Z,76.79
2023-11-30T23:17:20.100Z,77.31
2023-11-30T23:20:22.093Z,77.03
2023-11-30T23:23:23.802Z,76.61
2023-11-30T23:26:27.124Z,76.35
2023-11-30T23:29:28.921Z,76.29
2023-11-30T23:32:30.858Z,76.83
2023-11-30T23:35:32.820Z,76.96
2023-11-30T23:38:35.011Z,77.07
2023-11-30T23:41:38.125Z,76.80
2023-11-30T23:44:40.097Z,76.39
2023-11-30T23:47:42.005Z,76.93
2023-11-30T23:50:44.165Z,76.61
2023-11-30T23:53:45.951Z,76.57
2023-11-30T23:56:49.238Z,77.01
2023-11-30T23:59:51.115Z,76.74
